sensor_id;sensor_type;location;lat;lon;timestamp;P1;durP1;ratioP1;P2;durP2;ratioP2
27622;SDS011;15041;45.334;5.622;2022-07-29T00:01:48;2.65;;;2.20;;
27622;SDS011;15041;45.334;5.622;2022-07-29T00:04:17;4.35;;;2.47;;
27622;SDS011;15041;45.334;5.622;2022-07-29T00:06:46;5.28;;;2.25;;
27622;SDS011;15041;45.334;5.622;2022-07-29T00:09:13;2.50;;;2.03;;
27622;SDS011;15041;45.334;5.622;2022-07-29T00:11:40;2.42;;;2.20;;
27622;SDS011;15041;45.334;5.622;2022-07-29T00:14:08;3.55;;;1.98;;
27622;SDS011;15041;45.334;5.622;2022-07-29T00:16:35;2.47;;;2.00;;
27622;SDS011;15041;45.334;5.622;2022-07-29T00:19:02;5.53;;;2.28;;
27622;SDS011;15041;45.334;5.622;2022-07-29T00:21:30;2.42;;;1.85;;
27622;SDS011;15041;45.334;5.622;2022-07-29T00:23:58;2.03;;;1.90;;
27622;SDS011;15041;45.334;5.622;2022-07-29T00:26:26;5.78;;;2.10;;
27622;SDS011;15041;45.334;5.622;2022-07-29T00:28:57;9.48;;;2.70;;
27622;SDS011;15041;45.334;5.622;2022-07-29T00:31:24;3.42;;;1.80;;
27622;SDS011;15041;45.334;5.622;2022-07-29T00:33:54;2.40;;;2.20;;
27622;SDS011;15041;45.334;5.622;2022-07-29T00:36:22;6.07;;;1.77;;
27622;SDS011;15041;45.334;5.622;2022-07-29T00:38:48;5.30;;;2.40;;
27622;SDS011;15041;45.334;5.622;2022-07-29T00:41:17;3.45;;;2.20;;
27622;SDS011;15041;45.334;5.622;2022-07-29T00:43:45;3.22;;;2.17;;
27622;SDS011;15041;45.334;5.622;2022-07-29T00:46:12;2.05;;;1.88;;
27622;SDS011;15041;45.334;5.622;2022-07-29T00:48:39;2.80;;;2.40;;
27622;SDS011;15041;45.334;5.622;2022-07-29T00:51:07;4.18;;;2.28;;
27622;SDS011;15041;45.334;5.622;2022-07-29T00:53:35;9.23;;;2.20;;
27622;SDS011;15041;45.334;5.622;2022-07-29T00:56:03;2.65;;;2.20;;
27622;SDS011;15041;45.334;5.622;2022-07-29T00:58:32;2.25;;;1.88;;
27622;SDS011;15041;45.334;5.622;2022-07-29T01:00:59;2.70;;;2.20;;
27622;SDS011;15041;45.334;5.622;2022-07-29T01:03:26;3.72;;;2.20;;
27622;SDS011;15041;45.334;5.622;2022-07-29T01:05:53;2.85;;;2.38;;
27622;SDS011;15041;45.334;5.622;2022-07-29T01:08:21;5.18;;;2.13;;
27622;SDS011;15041;45.334;5.622;2022-07-29T01:10:50;2.70;;;2.00;;
27622;SDS011;15041;45.334;5.622;2022-07-29T01:13:18;7.13;;;2.25;;
27622;SDS011;15041;45.334;5.622;2022-07-29T01:15:49;8.27;;;2.30;;
27622;SDS011;15041;45.334;5.622;2022-07-29T01:18:24;3.17;;;2.10;;
27622;SDS011;15041;45.334;5.622;2022-07-29T01:24:05;5.70;;;2.17;;
27622;SDS011;15041;45.334;5.622;2022-07-29T01:26:52;3.20;;;2.30;;
27622;SDS011;15041;45.334;5.622;2022-07-29T01:29:26;2.80;;;2.33;;
27622;SDS011;15041;45.334;5.622;2022-07-29T01:31:56;2.45;;;2.25;;
27622;SDS011;15041;45.334;5.622;2022-07-29T01:34:29;4.97;;;2.35;;
27622;SDS011;15041;45.334;5.622;2022-07-29T01:37:11;7.72;;;2.65;;
27622;SDS011;15041;45.334;5.622;2022-07-29T01:39:45;3.53;;;1.92;;
27622;SDS011;15041;45.334;5.622;2022-07-29T01:42:15;3.28;;;2.00;;
27622;SDS011;15041;45.334;5.622;2022-07-29T01:44:50;5.70;;;2.25;;
27622;SDS011;15041;45.334;5.622;2022-07-29T01:47:25;5.25;;;2.58;;
27622;SDS011;15041;45.334;5.622;2022-07-29T01:49:56;2.40;;;2.00;;
27622;SDS011;15041;45.334;5.622;2022-07-29T01:52:25;5.72;;;2.05;;
27622;SDS011;15041;45.334;5.622;2022-07-29T01:54:58;9.77;;;2.70;;
27622;SDS011;15041;45.334;5.622;2022-07-29T01:57:29;2.38;;;2.17;;
27622;SDS011;15041;45.334;5.622;2022-07-29T01:59:59;4.97;;;2.42;;
27622;SDS011;15041;45.334;5.622;2022-07-29T02:02:37;5.90;;;2.50;;
27622;SDS011;15041;45.334;5.622;2022-07-29T02:05:07;2.40;;;2.20;;
27622;SDS011;15041;45.334;5.622;2022-07-29T02:07:37;3.08;;;2.20;;
27622;SDS011;15041;45.334;5.622;2022-07-29T02:10:07;7.47;;;2.50;;
27622;SDS011;15041;45.334;5.622;2022-07-29T02:12:36;3.95;;;2.58;;
27622;SDS011;15041;45.334;5.622;2022-07-29T02:15:06;4.65;;;2.38;;
27622;SDS011;15041;45.334;5.622;2022-07-29T02:17:35;2.42;;;2.22;;
27622;SDS011;15041;45.334;5.622;2022-07-29T02:20:07;5.72;;;2.20;;
27622;SDS011;15041;45.334;5.622;2022-07-29T02:22:37;3.60;;;2.47;;
27622;SDS011;15041;45.334;5.622;2022-07-29T02:25:06;2.50;;;2.30;;
27622;SDS011;15041;45.334;5.622;2022-07-29T02:27:35;4.35;;;2.38;;
27622;SDS011;15041;45.334;5.622;2022-07-29T02:30:06;6.95;;;2.28;;
27622;SDS011;15041;45.334;5.622;2022-07-29T02:32:35;4.93;;;2.50;;
27622;SDS011;15041;45.334;5.622;2022-07-29T02:35:06;3.58;;;2.35;;
27622;SDS011;15041;45.334;5.622;2022-07-29T02:37:35;6.53;;;2.25;;
27622;SDS011;15041;45.334;5.622;2022-07-29T02:40:03;2.28;;;2.08;;
27622;SDS011;15041;45.334;5.622;2022-07-29T02:42:32;2.45;;;2.20;;
27622;SDS011;15041;45.334;5.622;2022-07-29T02:45:03;3.00;;;2.25;;
27622;SDS011;15041;45.334;5.622;2022-07-29T02:47:33;4.45;;;2.22;;
27622;SDS011;15041;45.334;5.622;2022-07-29T02:50:04;4.65;;;2.22;;
27622;SDS011;15041;45.334;5.622;2022-07-29T02:52:37;4.82;;;2.33;;
27622;SDS011;15041;45.334;5.622;2022-07-29T02:55:10;6.13;;;2.08;;
27622;SDS011;15041;45.334;5.622;2022-07-29T02:57:44;9.20;;;2.50;;
27622;SDS011;15041;45.334;5.622;2022-07-29T03:00:16;2.00;;;1.90;;
27622;SDS011;15041;45.334;5.622;2022-07-29T03:02:45;4.78;;;2.00;;
27622;SDS011;15041;45.334;5.622;2022-07-29T03:05:19;3.60;;;2.15;;
27622;SDS011;15041;45.334;5.622;2022-07-29T03:07:48;5.85;;;1.80;;
27622;SDS011;15041;45.334;5.622;2022-07-29T03:10:19;1.60;;;1.50;;
27622;SDS011;15041;45.334;5.622;2022-07-29T03:12:47;2.20;;;2.05;;
27622;SDS011;15041;45.334;5.622;2022-07-29T03:15:15;6.70;;;1.80;;
27622;SDS011;15041;45.334;5.622;2022-07-29T03:17:42;2.00;;;1.90;;
27622;SDS011;15041;45.334;5.622;2022-07-29T03:20:12;13.95;;;2.83;;
27622;SDS011;15041;45.334;5.622;2022-07-29T03:22:40;7.47;;;2.90;;
27622;SDS011;15041;45.334;5.622;2022-07-29T03:25:09;7.25;;;2.65;;
27622;SDS011;15041;45.334;5.622;2022-07-29T03:27:37;13.20;;;3.25;;
27622;SDS011;15041;45.334;5.622;2022-07-29T03:30:05;13.57;;;3.42;;
27622;SDS011;15041;45.334;5.622;2022-07-29T03:32:33;18.35;;;3.15;;
27622;SDS011;15041;45.334;5.622;2022-07-29T03:35:02;17.75;;;3.40;;
27622;SDS011;15041;45.334;5.622;2022-07-29T03:37:30;26.45;;;3.25;;
27622;SDS011;15041;45.334;5.622;2022-07-29T03:39:59;16.10;;;3.15;;
27622;SDS011;15041;45.334;5.622;2022-07-29T03:42:30;13.07;;;3.90;;
27622;SDS011;15041;45.334;5.622;2022-07-29T03:44:59;8.80;;;2.85;;
27622;SDS011;15041;45.334;5.622;2022-07-29T03:47:30;14.35;;;3.45;;
27622;SDS011;15041;45.334;5.622;2022-07-29T03:50:00;14.20;;;4.15;;
27622;SDS011;15041;45.334;5.622;2022-07-29T03:52:32;13.88;;;4.25;;
27622;SDS011;15041;45.334;5.622;2022-07-29T03:55:00;31.45;;;4.70;;
27622;SDS011;15041;45.334;5.622;2022-07-29T03:57:30;14.05;;;3.33;;
27622;SDS011;15041;45.334;5.622;2022-07-29T03:59:59;15.20;;;3.38;;
27622;SDS011;15041;45.334;5.622;2022-07-29T04:02:29;14.30;;;3.05;;
27622;SDS011;15041;45.334;5.622;2022-07-29T04:04:58;14.55;;;2.83;;
27622;SDS011;15041;45.334;5.622;2022-07-29T04:07:26;12.18;;;3.35;;
27622;SDS011;15041;45.334;5.622;2022-07-29T04:09:55;10.35;;;2.60;;
27622;SDS011;15041;45.334;5.622;2022-07-29T04:12:22;15.77;;;3.20;;
27622;SDS011;15041;45.334;5.622;2022-07-29T04:14:49;7.90;;;4.38;;
27622;SDS011;15041;45.334;5.622;2022-07-29T04:17:16;11.30;;;3.80;;
27622;SDS011;15041;45.334;5.622;2022-07-29T04:19:44;8.23;;;3.20;;
27622;SDS011;15041;45.334;5.622;2022-07-29T04:22:11;11.10;;;2.85;;
27622;SDS011;15041;45.334;5.622;2022-07-29T04:24:39;9.75;;;3.40;;
27622;SDS011;15041;45.334;5.622;2022-07-29T04:27:06;12.02;;;2.75;;
27622;SDS011;15041;45.334;5.622;2022-07-29T04:29:33;6.20;;;3.17;;
27622;SDS011;15041;45.334;5.622;2022-07-29T04:32:00;10.10;;;3.40;;
27622;SDS011;15041;45.334;5.622;2022-07-29T04:34:27;9.38;;;2.65;;
27622;SDS011;15041;45.334;5.622;2022-07-29T04:36:55;6.88;;;3.05;;
27622;SDS011;15041;45.334;5.622;2022-07-29T04:39:22;8.75;;;2.60;;
27622;SDS011;15041;45.334;5.622;2022-07-29T04:41:50;4.82;;;2.05;;
27622;SDS011;15041;45.334;5.622;2022-07-29T04:44:17;7.20;;;2.78;;
27622;SDS011;15041;45.334;5.622;2022-07-29T04:46:45;16.00;;;2.88;;
27622;SDS011;15041;45.334;5.622;2022-07-29T04:49:12;13.10;;;2.83;;
27622;SDS011;15041;45.334;5.622;2022-07-29T04:51:39;8.98;;;2.65;;
27622;SDS011;15041;45.334;5.622;2022-07-29T04:54:06;4.93;;;2.60;;
27622;SDS011;15041;45.334;5.622;2022-07-29T04:56:33;13.23;;;3.78;;
27622;SDS011;15041;45.334;5.622;2022-07-29T04:59:02;7.63;;;3.20;;
27622;SDS011;15041;45.334;5.622;2022-07-29T05:01:29;7.88;;;2.78;;
27622;SDS011;15041;45.334;5.622;2022-07-29T05:03:56;6.75;;;3.33;;
27622;SDS011;15041;45.334;5.622;2022-07-29T05:06:23;23.67;;;7.03;;
27622;SDS011;15041;45.334;5.622;2022-07-29T05:08:50;8.57;;;3.50;;
27622;SDS011;15041;45.334;5.622;2022-07-29T05:11:17;7.97;;;2.80;;
27622;SDS011;15041;45.334;5.622;2022-07-29T05:13:45;7.25;;;2.20;;
27622;SDS011;15041;45.334;5.622;2022-07-29T05:16:13;8.02;;;2.38;;
27622;SDS011;15041;45.334;5.622;2022-07-29T05:18:40;7.03;;;2.47;;
27622;SDS011;15041;45.334;5.622;2022-07-29T05:21:07;6.75;;;2.75;;
27622;SDS011;15041;45.334;5.622;2022-07-29T05:23:35;6.72;;;2.92;;
27622;SDS011;15041;45.334;5.622;2022-07-29T05:26:02;7.30;;;2.65;;
27622;SDS011;15041;45.334;5.622;2022-07-29T05:28:32;8.50;;;2.92;;
27622;SDS011;15041;45.334;5.622;2022-07-29T05:30:59;3.28;;;2.25;;
27622;SDS011;15041;45.334;5.622;2022-07-29T05:33:28;9.02;;;2.55;;
27622;SDS011;15041;45.334;5.622;2022-07-29T05:35:55;6.13;;;3.05;;
27622;SDS011;15041;45.334;5.622;2022-07-29T05:38:22;6.22;;;3.08;;
27622;SDS011;15041;45.334;5.622;2022-07-29T05:40:50;6.90;;;2.80;;
27622;SDS011;15041;45.334;5.622;2022-07-29T05:43:17;6.05;;;2.88;;
27622;SDS011;15041;45.334;5.622;2022-07-29T05:45:44;12.70;;;3.00;;
27622;SDS011;15041;45.334;5.622;2022-07-29T05:48:11;4.47;;;3.05;;
27622;SDS011;15041;45.334;5.622;2022-07-29T05:50:40;11.48;;;3.55;;
27622;SDS011;15041;45.334;5.622;2022-07-29T05:53:13;13.32;;;3.35;;
27622;SDS011;15041;45.334;5.622;2022-07-29T05:55:41;9.98;;;3.50;;
27622;SDS011;15041;45.334;5.622;2022-07-29T05:58:08;12.85;;;3.05;;
27622;SDS011;15041;45.334;5.622;2022-07-29T06:00:35;19.45;;;4.47;;
27622;SDS011;15041;45.334;5.622;2022-07-29T06:03:02;11.60;;;3.80;;
27622;SDS011;15041;45.334;5.622;2022-07-29T06:05:29;9.27;;;2.75;;
27622;SDS011;15041;45.334;5.622;2022-07-29T06:07:58;11.40;;;3.47;;
27622;SDS011;15041;45.334;5.622;2022-07-29T06:10:25;9.43;;;2.75;;
27622;SDS011;15041;45.334;5.622;2022-07-29T06:12:52;5.97;;;2.70;;
27622;SDS011;15041;45.334;5.622;2022-07-29T06:15:19;9.20;;;3.38;;
27622;SDS011;15041;45.334;5.622;2022-07-29T06:17:46;5.30;;;2.92;;
27622;SDS011;15041;45.334;5.622;2022-07-29T06:20:14;19.20;;;3.70;;
27622;SDS011;15041;45.334;5.622;2022-07-29T06:22:41;22.02;;;4.05;;
27622;SDS011;15041;45.334;5.622;2022-07-29T06:25:10;12.73;;;2.75;;
27622;SDS011;15041;45.334;5.622;2022-07-29T06:27:37;16.92;;;3.85;;
27622;SDS011;15041;45.334;5.622;2022-07-29T06:30:05;18.70;;;3.85;;
27622;SDS011;15041;45.334;5.622;2022-07-29T06:32:32;15.50;;;3.53;;
27622;SDS011;15041;45.334;5.622;2022-07-29T06:35:00;10.35;;;3.90;;
27622;SDS011;15041;45.334;5.622;2022-07-29T06:37:27;18.90;;;3.97;;
27622;SDS011;15041;45.334;5.622;2022-07-29T06:39:54;12.55;;;3.25;;
27622;SDS011;15041;45.334;5.622;2022-07-29T06:42:37;13.77;;;3.15;;
27622;SDS011;15041;45.334;5.622;2022-07-29T06:45:04;13.32;;;3.00;;
27622;SDS011;15041;45.334;5.622;2022-07-29T06:47:32;11.95;;;3.20;;
27622;SDS011;15041;45.334;5.622;2022-07-29T06:49:59;12.70;;;3.83;;
27622;SDS011;15041;45.334;5.622;2022-07-29T06:52:26;8.02;;;2.67;;
27622;SDS011;15041;45.334;5.622;2022-07-29T06:54:53;7.00;;;3.20;;
27622;SDS011;15041;45.334;5.622;2022-07-29T06:57:20;12.00;;;3.33;;
27622;SDS011;15041;45.334;5.622;2022-07-29T06:59:49;9.00;;;3.42;;
27622;SDS011;15041;45.334;5.622;2022-07-29T07:02:16;11.15;;;2.90;;
27622;SDS011;15041;45.334;5.622;2022-07-29T07:04:43;10.32;;;3.08;;
27622;SDS011;15041;45.334;5.622;2022-07-29T07:07:10;14.88;;;3.53;;
27622;SDS011;15041;45.334;5.622;2022-07-29T07:09:37;10.07;;;3.22;;
27622;SDS011;15041;45.334;5.622;2022-07-29T07:12:05;13.48;;;3.42;;
27622;SDS011;15041;45.334;5.622;2022-07-29T07:14:32;12.35;;;4.10;;
27622;SDS011;15041;45.334;5.622;2022-07-29T07:17:01;23.63;;;3.38;;
27622;SDS011;15041;45.334;5.622;2022-07-29T07:19:29;33.92;;;3.80;;
27622;SDS011;15041;45.334;5.622;2022-07-29T07:21:56;29.02;;;3.50;;
27622;SDS011;15041;45.334;5.622;2022-07-29T07:24:23;19.55;;;3.83;;
27622;SDS011;15041;45.334;5.622;2022-07-29T07:26:50;22.90;;;3.50;;
27622;SDS011;15041;45.334;5.622;2022-07-29T07:29:18;25.23;;;4.55;;
27622;SDS011;15041;45.334;5.622;2022-07-29T07:31:45;58.67;;;5.78;;
27622;SDS011;15041;45.334;5.622;2022-07-29T07:34:13;51.10;;;5.60;;
27622;SDS011;15041;45.334;5.622;2022-07-29T07:36:41;16.10;;;3.67;;
27622;SDS011;15041;45.334;5.622;2022-07-29T07:39:08;24.00;;;3.83;;
27622;SDS011;15041;45.334;5.622;2022-07-29T07:41:35;32.63;;;4.63;;
27622;SDS011;15041;45.334;5.622;2022-07-29T07:44:02;31.38;;;4.43;;
27622;SDS011;15041;45.334;5.622;2022-07-29T07:46:30;29.00;;;3.80;;
27622;SDS011;15041;45.334;5.622;2022-07-29T07:48:57;18.75;;;3.22;;
27622;SDS011;15041;45.334;5.622;2022-07-29T07:51:26;17.50;;;3.22;;
27622;SDS011;15041;45.334;5.622;2022-07-29T07:53:53;12.05;;;3.03;;
27622;SDS011;15041;45.334;5.622;2022-07-29T07:56:20;16.35;;;3.40;;
27622;SDS011;15041;45.334;5.622;2022-07-29T07:58:47;10.82;;;3.13;;
27622;SDS011;15041;45.334;5.622;2022-07-29T08:01:15;6.80;;;2.90;;
27622;SDS011;15041;45.334;5.622;2022-07-29T08:03:44;16.33;;;3.50;;
27622;SDS011;15041;45.334;5.622;2022-07-29T08:06:11;13.65;;;3.28;;
27622;SDS011;15041;45.334;5.622;2022-07-29T08:08:39;8.43;;;3.22;;
27622;SDS011;15041;45.334;5.622;2022-07-29T08:11:07;10.68;;;3.53;;
27622;SDS011;15041;45.334;5.622;2022-07-29T08:13:34;18.50;;;3.70;;
27622;SDS011;15041;45.334;5.622;2022-07-29T08:16:01;19.13;;;3.80;;
27622;SDS011;15041;45.334;5.622;2022-07-29T08:18:37;19.50;;;3.67;;
27622;SDS011;15041;45.334;5.622;2022-07-29T08:21:05;20.83;;;4.72;;
27622;SDS011;15041;45.334;5.622;2022-07-29T08:23:32;15.77;;;3.30;;
27622;SDS011;15041;45.334;5.622;2022-07-29T08:26:05;11.48;;;3.88;;
27622;SDS011;15041;45.334;5.622;2022-07-29T08:28:36;9.90;;;3.53;;
27622;SDS011;15041;45.334;5.622;2022-07-29T08:31:03;10.20;;;3.83;;
27622;SDS011;15041;45.334;5.622;2022-07-29T08:33:31;18.17;;;3.55;;
27622;SDS011;15041;45.334;5.622;2022-07-29T08:35:58;13.25;;;3.28;;
27622;SDS011;15041;45.334;5.622;2022-07-29T08:38:26;24.13;;;3.53;;
27622;SDS011;15041;45.334;5.622;2022-07-29T08:40:53;20.70;;;3.80;;
27622;SDS011;15041;45.334;5.622;2022-07-29T08:43:22;12.25;;;3.35;;
27622;SDS011;15041;45.334;5.622;2022-07-29T08:45:50;14.43;;;3.80;;
27622;SDS011;15041;45.334;5.622;2022-07-29T08:48:19;12.25;;;3.53;;
27622;SDS011;15041;45.334;5.622;2022-07-29T08:50:48;9.38;;;3.80;;
27622;SDS011;15041;45.334;5.622;2022-07-29T08:53:19;7.53;;;2.78;;
27622;SDS011;15041;45.334;5.622;2022-07-29T08:55:48;6.97;;;2.45;;
27622;SDS011;15041;45.334;5.622;2022-07-29T08:58:16;10.70;;;2.83;;
27622;SDS011;15041;45.334;5.622;2022-07-29T09:00:46;4.97;;;2.90;;
27622;SDS011;15041;45.334;5.622;2022-07-29T09:03:17;4.43;;;2.78;;
27622;SDS011;15041;45.334;5.622;2022-07-29T09:05:46;8.68;;;3.33;;
27622;SDS011;15041;45.334;5.622;2022-07-29T09:08:14;6.47;;;2.70;;
27622;SDS011;15041;45.334;5.622;2022-07-29T09:10:42;5.50;;;3.28;;
27622;SDS011;15041;45.334;5.622;2022-07-29T09:13:10;5.88;;;2.63;;
27622;SDS011;15041;45.334;5.622;2022-07-29T09:15:37;9.45;;;3.05;;
27622;SDS011;15041;45.334;5.622;2022-07-29T09:18:06;5.40;;;3.15;;
27622;SDS011;15041;45.334;5.622;2022-07-29T09:20:33;9.02;;;3.00;;
27622;SDS011;15041;45.334;5.622;2022-07-29T09:23:14;7.93;;;3.40;;
27622;SDS011;15041;45.334;5.622;2022-07-29T09:25:41;6.05;;;3.40;;
27622;SDS011;15041;45.334;5.622;2022-07-29T09:28:09;7.63;;;3.47;;
27622;SDS011;15041;45.334;5.622;2022-07-29T09:30:39;7.75;;;3.80;;
27622;SDS011;15041;45.334;5.622;2022-07-29T09:33:18;7.57;;;3.53;;
27622;SDS011;15041;45.334;5.622;2022-07-29T09:35:57;7.03;;;3.60;;
27622;SDS011;15041;45.334;5.622;2022-07-29T09:38:25;8.90;;;3.17;;
27622;SDS011;15041;45.334;5.622;2022-07-29T09:40:55;4.40;;;3.03;;
27622;SDS011;15041;45.334;5.622;2022-07-29T09:43:24;5.88;;;3.25;;
27622;SDS011;15041;45.334;5.622;2022-07-29T09:45:51;6.63;;;3.53;;
27622;SDS011;15041;45.334;5.622;2022-07-29T09:48:20;9.77;;;3.92;;
27622;SDS011;15041;45.334;5.622;2022-07-29T09:50:49;5.65;;;3.72;;
27622;SDS011;15041;45.334;5.622;2022-07-29T09:53:30;7.30;;;3.55;;
27622;SDS011;15041;45.334;5.622;2022-07-29T09:55:58;6.00;;;3.63;;
27622;SDS011;15041;45.334;5.622;2022-07-29T09:58:25;4.22;;;3.83;;
27622;SDS011;15041;45.334;5.622;2022-07-29T10:00:53;8.90;;;3.70;;
27622;SDS011;15041;45.334;5.622;2022-07-29T10:03:23;5.05;;;3.85;;
27622;SDS011;15041;45.334;5.622;2022-07-29T10:06:04;5.85;;;3.53;;
27622;SDS011;15041;45.334;5.622;2022-07-29T10:08:32;6.28;;;3.35;;
27622;SDS011;15041;45.334;5.622;2022-07-29T10:11:08;9.55;;;4.15;;
27622;SDS011;15041;45.334;5.622;2022-07-29T10:13:36;5.20;;;3.38;;
27622;SDS011;15041;45.334;5.622;2022-07-29T10:16:04;9.05;;;3.58;;
27622;SDS011;15041;45.334;5.622;2022-07-29T10:18:34;8.40;;;4.43;;
27622;SDS011;15041;45.334;5.622;2022-07-29T10:21:01;8.43;;;4.90;;
27622;SDS011;15041;45.334;5.622;2022-07-29T10:23:29;6.60;;;4.32;;
27622;SDS011;15041;45.334;5.622;2022-07-29T10:25:56;5.72;;;4.13;;
27622;SDS011;15041;45.334;5.622;2022-07-29T10:28:24;6.10;;;2.97;;
27622;SDS011;15041;45.334;5.622;2022-07-29T10:30:51;5.63;;;3.80;;
27622;SDS011;15041;45.334;5.622;2022-07-29T10:33:30;7.80;;;3.67;;
27622;SDS011;15041;45.334;5.622;2022-07-29T10:36:19;6.63;;;3.75;;
27622;SDS011;15041;45.334;5.622;2022-07-29T10:38:58;8.40;;;3.67;;
27622;SDS011;15041;45.334;5.622;2022-07-29T10:41:47;4.18;;;3.60;;
27622;SDS011;15041;45.334;5.622;2022-07-29T10:44:26;6.50;;;3.20;;
27622;SDS011;15041;45.334;5.622;2022-07-29T10:46:53;7.32;;;3.58;;
27622;SDS011;15041;45.334;5.622;2022-07-29T10:49:23;5.30;;;3.30;;
27622;SDS011;15041;45.334;5.622;2022-07-29T10:52:00;5.38;;;3.50;;
27622;SDS011;15041;45.334;5.622;2022-07-29T10:54:39;5.75;;;3.38;;
27622;SDS011;15041;45.334;5.622;2022-07-29T10:57:16;7.25;;;4.05;;
27622;SDS011;15041;45.334;5.622;2022-07-29T10:59:46;9.77;;;4.30;;
27622;SDS011;15041;45.334;5.622;2022-07-29T11:05:10;13.63;;;5.38;;
27622;SDS011;15041;45.334;5.622;2022-07-29T11:07:39;6.80;;;3.80;;
27622;SDS011;15041;45.334;5.622;2022-07-29T11:10:26;14.13;;;4.00;;
27622;SDS011;15041;45.334;5.622;2022-07-29T11:12:54;9.80;;;3.80;;
27622;SDS011;15041;45.334;5.622;2022-07-29T11:15:21;10.18;;;4.25;;
27622;SDS011;15041;45.334;5.622;2022-07-29T11:18:05;9.05;;;3.58;;
27622;SDS011;15041;45.334;5.622;2022-07-29T11:20:35;6.05;;;3.28;;
27622;SDS011;15041;45.334;5.622;2022-07-29T11:28:56;14.65;;;3.90;;
27622;SDS011;15041;45.334;5.622;2022-07-29T11:31:32;10.32;;;4.20;;
27622;SDS011;15041;45.334;5.622;2022-07-29T11:34:23;7.03;;;3.72;;
27622;SDS011;15041;45.334;5.622;2022-07-29T11:40:07;10.98;;;4.47;;
27622;SDS011;15041;45.334;5.622;2022-07-29T11:42:40;3.80;;;2.92;;
27622;SDS011;15041;45.334;5.622;2022-07-29T11:45:09;15.20;;;7.50;;
27622;SDS011;15041;45.334;5.622;2022-07-29T11:47:39;5.93;;;3.78;;
27622;SDS011;15041;45.334;5.622;2022-07-29T11:50:08;6.45;;;3.55;;
27622;SDS011;15041;45.334;5.622;2022-07-29T11:52:41;4.82;;;3.80;;
27622;SDS011;15041;45.334;5.622;2022-07-29T11:55:11;7.60;;;3.78;;
27622;SDS011;15041;45.334;5.622;2022-07-29T11:57:46;7.50;;;3.83;;
27622;SDS011;15041;45.334;5.622;2022-07-29T12:00:21;4.38;;;3.72;;
27622;SDS011;15041;45.334;5.622;2022-07-29T12:02:50;6.43;;;3.63;;
27622;SDS011;15041;45.334;5.622;2022-07-29T12:05:18;6.18;;;4.38;;
27622;SDS011;15041;45.334;5.622;2022-07-29T12:07:47;5.40;;;4.25;;
27622;SDS011;15041;45.334;5.622;2022-07-29T12:10:15;6.80;;;4.03;;
27622;SDS011;15041;45.334;5.622;2022-07-29T12:12:42;6.05;;;3.70;;
27622;SDS011;15041;45.334;5.622;2022-07-29T12:15:17;8.18;;;4.18;;
27622;SDS011;15041;45.334;5.622;2022-07-29T12:17:46;6.97;;;4.22;;
27622;SDS011;15041;45.334;5.622;2022-07-29T12:20:21;7.68;;;4.03;;
27622;SDS011;15041;45.334;5.622;2022-07-29T12:22:51;6.43;;;4.47;;
27622;SDS011;15041;45.334;5.622;2022-07-29T12:25:20;5.20;;;4.07;;
27622;SDS011;15041;45.334;5.622;2022-07-29T12:27:57;6.15;;;4.03;;
27622;SDS011;15041;45.334;5.622;2022-07-29T12:30:34;3.85;;;3.35;;
27622;SDS011;15041;45.334;5.622;2022-07-29T12:33:09;5.30;;;3.30;;
27622;SDS011;15041;45.334;5.622;2022-07-29T12:35:38;7.82;;;4.45;;
27622;SDS011;15041;45.334;5.622;2022-07-29T12:38:08;7.25;;;3.72;;
27622;SDS011;15041;45.334;5.622;2022-07-29T12:40:36;5.63;;;3.42;;
27622;SDS011;15041;45.334;5.622;2022-07-29T12:43:07;3.50;;;3.20;;
27622;SDS011;15041;45.334;5.622;2022-07-29T12:45:36;3.70;;;3.38;;
27622;SDS011;15041;45.334;5.622;2022-07-29T12:48:03;6.40;;;4.32;;
27622;SDS011;15041;45.334;5.622;2022-07-29T12:50:34;3.67;;;3.17;;
27622;SDS011;15041;45.334;5.622;2022-07-29T12:53:12;7.82;;;3.58;;
27622;SDS011;15041;45.334;5.622;2022-07-29T12:55:43;4.88;;;3.40;;
27622;SDS011;15041;45.334;5.622;2022-07-29T12:58:14;5.25;;;4.00;;
27622;SDS011;15041;45.334;5.622;2022-07-29T13:01:00;3.80;;;3.38;;
27622;SDS011;15041;45.334;5.622;2022-07-29T13:03:45;5.55;;;3.55;;
27622;SDS011;15041;45.334;5.622;2022-07-29T13:06:30;4.07;;;3.63;;
27622;SDS011;15041;45.334;5.622;2022-07-29T13:09:07;4.93;;;2.97;;
27622;SDS011;15041;45.334;5.622;2022-07-29T13:11:38;5.00;;;3.58;;
27622;SDS011;15041;45.334;5.622;2022-07-29T13:14:07;5.25;;;3.75;;
27622;SDS011;15041;45.334;5.622;2022-07-29T13:16:36;4.63;;;3.65;;
27622;SDS011;15041;45.334;5.622;2022-07-29T13:19:32;5.78;;;3.42;;
27622;SDS011;15041;45.334;5.622;2022-07-29T13:22:03;5.13;;;3.85;;
27622;SDS011;15041;45.334;5.622;2022-07-29T13:24:32;5.18;;;3.55;;
27622;SDS011;15041;45.334;5.622;2022-07-29T13:27:00;3.75;;;3.45;;
27622;SDS011;15041;45.334;5.622;2022-07-29T13:29:27;5.75;;;4.13;;
27622;SDS011;15041;45.334;5.622;2022-07-29T13:31:54;5.00;;;3.63;;
27622;SDS011;15041;45.334;5.622;2022-07-29T13:34:21;5.32;;;3.90;;
27622;SDS011;15041;45.334;5.622;2022-07-29T13:36:49;7.25;;;3.75;;
27622;SDS011;15041;45.334;5.622;2022-07-29T13:39:16;3.78;;;3.15;;
27622;SDS011;15041;45.334;5.622;2022-07-29T13:41:45;3.90;;;3.40;;
27622;SDS011;15041;45.334;5.622;2022-07-29T13:44:13;4.72;;;3.78;;
27622;SDS011;15041;45.334;5.622;2022-07-29T13:46:40;3.75;;;3.50;;
27622;SDS011;15041;45.334;5.622;2022-07-29T13:49:07;5.95;;;3.35;;
27622;SDS011;15041;45.334;5.622;2022-07-29T13:51:34;7.45;;;3.35;;
27622;SDS011;15041;45.334;5.622;2022-07-29T13:54:01;3.45;;;3.15;;
27622;SDS011;15041;45.334;5.622;2022-07-29T13:56:28;3.50;;;3.20;;
27622;SDS011;15041;45.334;5.622;2022-07-29T13:58:57;6.40;;;3.22;;
27622;SDS011;15041;45.334;5.622;2022-07-29T14:01:24;6.72;;;3.20;;
27622;SDS011;15041;45.334;5.622;2022-07-29T14:03:52;5.93;;;3.20;;
27622;SDS011;15041;45.334;5.622;2022-07-29T14:06:19;3.95;;;3.30;;
27622;SDS011;15041;45.334;5.622;2022-07-29T14:08:46;4.55;;;3.47;;
27622;SDS011;15041;45.334;5.622;2022-07-29T14:11:14;10.90;;;4.63;;
27622;SDS011;15041;45.334;5.622;2022-07-29T14:13:41;4.47;;;3.40;;
27622;SDS011;15041;45.334;5.622;2022-07-29T14:16:09;5.70;;;3.53;;
27622;SDS011;15041;45.334;5.622;2022-07-29T14:18:36;3.67;;;3.03;;
27622;SDS011;15041;45.334;5.622;2022-07-29T14:21:03;4.13;;;3.35;;
27622;SDS011;15041;45.334;5.622;2022-07-29T14:23:31;4.68;;;3.53;;
27622;SDS011;15041;45.334;5.622;2022-07-29T14:25:58;18.42;;;3.47;;
27622;SDS011;15041;45.334;5.622;2022-07-29T14:28:25;4.30;;;3.17;;
27622;SDS011;15041;45.334;5.622;2022-07-29T14:30:52;3.55;;;2.92;;
27622;SDS011;15041;45.334;5.622;2022-07-29T14:33:20;4.22;;;3.35;;
27622;SDS011;15041;45.334;5.622;2022-07-29T14:35:48;5.10;;;2.90;;
27622;SDS011;15041;45.334;5.622;2022-07-29T14:38:15;10.07;;;3.33;;
27622;SDS011;15041;45.334;5.622;2022-07-29T14:40:42;4.95;;;3.35;;
27622;SDS011;15041;45.334;5.622;2022-07-29T14:43:09;5.13;;;3.15;;
27622;SDS011;15041;45.334;5.622;2022-07-29T14:45:36;4.70;;;2.67;;
27622;SDS011;15041;45.334;5.622;2022-07-29T14:48:03;3.50;;;3.20;;
27622;SDS011;15041;45.334;5.622;2022-07-29T14:50:32;5.63;;;3.45;;
27622;SDS011;15041;45.334;5.622;2022-07-29T14:53:00;3.20;;;2.88;;
27622;SDS011;15041;45.334;5.622;2022-07-29T14:55:27;3.15;;;2.72;;
27622;SDS011;15041;45.334;5.622;2022-07-29T14:57:54;4.05;;;2.95;;
27622;SDS011;15041;45.334;5.622;2022-07-29T15:00:22;4.70;;;2.88;;
27622;SDS011;15041;45.334;5.622;2022-07-29T15:02:49;5.03;;;2.40;;
27622;SDS011;15041;45.334;5.622;2022-07-29T15:05:16;2.78;;;2.47;;
27622;SDS011;15041;45.334;5.622;2022-07-29T15:07:45;2.78;;;2.53;;
27622;SDS011;15041;45.334;5.622;2022-07-29T15:10:12;4.47;;;2.50;;
27622;SDS011;15041;45.334;5.622;2022-07-29T15:12:39;2.45;;;2.28;;